Terminal Aerodrome Forecast
Issued by NWS

Home | Current Version | Previous Version | Text Only | Print | Product List | Glossary On
Versions: 1 2 3 4 5 6 7 8 9 10 11 12 13 14 15 16 17 18
732
FTUS44 KOHX 261727
TAFCKV
TAF
KCKV 261727Z 2618/2718 18014G22KT P6SM SCT250
     FM270100 18024G32KT P6SM SCT120 BKN250
     FM270600 18020G28KT 3SM -TSRA OVC015CB
     FM270800 21014G22KT P6SM VCSH SCT007 BKN015
     FM271200 25012KT P6SM SCT015 BKN035=

USA.gov is the U.S. government's official web portal to all federal, state and local government web resources and services.